sensor_id;sensor_type;location;lat;lon;timestamp;P1;durP1;ratioP1;P2;durP2;ratioP2
10479;SDS011;12789;42.610;23.040;2023-07-20T00:00:08;13.60;;;2.70;;
10479;SDS011;12789;42.610;23.040;2023-07-20T00:02:41;11.95;;;2.80;;
10479;SDS011;12789;42.610;23.040;2023-07-20T00:05:23;8.65;;;2.72;;
10479;SDS011;12789;42.610;23.040;2023-07-20T00:07:59;14.27;;;3.72;;
10479;SDS011;12789;42.610;23.040;2023-07-20T00:10:30;11.68;;;3.67;;
10479;SDS011;12789;42.610;23.040;2023-07-20T00:16:18;10.98;;;3.35;;
10479;SDS011;12789;42.610;23.040;2023-07-20T00:18:51;13.60;;;3.10;;
10479;SDS011;12789;42.610;23.040;2023-07-20T00:21:18;12.38;;;2.67;;
10479;SDS011;12789;42.610;23.040;2023-07-20T00:23:51;10.82;;;2.90;;
10479;SDS011;12789;42.610;23.040;2023-07-20T00:26:33;7.13;;;2.40;;
10479;SDS011;12789;42.610;23.040;2023-07-20T00:29:22;12.45;;;2.47;;
10479;SDS011;12789;42.610;23.040;2023-07-20T00:32:14;6.93;;;2.35;;
10479;SDS011;12789;42.610;23.040;2023-07-20T00:35:04;6.57;;;2.72;;
10479;SDS011;12789;42.610;23.040;2023-07-20T00:37:59;13.02;;;2.97;;
10479;SDS011;12789;42.610;23.040;2023-07-20T00:40:35;12.48;;;2.78;;
10479;SDS011;12789;42.610;23.040;2023-07-20T00:43:09;14.95;;;3.20;;
10479;SDS011;12789;42.610;23.040;2023-07-20T00:46:03;17.75;;;3.42;;
10479;SDS011;12789;42.610;23.040;2023-07-20T00:48:48;12.25;;;3.47;;
10479;SDS011;12789;42.610;23.040;2023-07-20T00:51:16;15.05;;;3.53;;
10479;SDS011;12789;42.610;23.040;2023-07-20T00:53:46;10.65;;;3.65;;
10479;SDS011;12789;42.610;23.040;2023-07-20T00:56:24;11.35;;;3.00;;
10479;SDS011;12789;42.610;23.040;2023-07-20T00:58:57;13.40;;;3.50;;
10479;SDS011;12789;42.610;23.040;2023-07-20T01:01:43;13.60;;;3.60;;
10479;SDS011;12789;42.610;23.040;2023-07-20T01:04:24;18.23;;;3.60;;
10479;SDS011;12789;42.610;23.040;2023-07-20T01:07:02;12.80;;;3.65;;
10479;SDS011;12789;42.610;23.040;2023-07-20T01:12:46;13.18;;;3.60;;
10479;SDS011;12789;42.610;23.040;2023-07-20T01:15:35;12.68;;;3.72;;
10479;SDS011;12789;42.610;23.040;2023-07-20T01:18:45;12.65;;;3.38;;
10479;SDS011;12789;42.610;23.040;2023-07-20T01:24:31;18.73;;;3.70;;
10479;SDS011;12789;42.610;23.040;2023-07-20T01:30:14;9.02;;;3.35;;
10479;SDS011;12789;42.610;23.040;2023-07-20T01:33:04;9.88;;;3.70;;
10479;SDS011;12789;42.610;23.040;2023-07-20T01:35:54;9.77;;;3.83;;
10479;SDS011;12789;42.610;23.040;2023-07-20T01:42:04;21.38;;;4.13;;
10479;SDS011;12789;42.610;23.040;2023-07-20T01:44:36;11.38;;;3.97;;
10479;SDS011;12789;42.610;23.040;2023-07-20T01:49:28;12.32;;;3.90;;
10479;SDS011;12789;42.610;23.040;2023-07-20T01:50:36;10.35;;;3.83;;
10479;SDS011;12789;42.610;23.040;2023-07-20T01:53:26;12.00;;;4.35;;
10479;SDS011;12789;42.610;23.040;2023-07-20T01:56:33;14.02;;;3.75;;
10479;SDS011;12789;42.610;23.040;2023-07-20T01:59:22;17.35;;;3.50;;
10479;SDS011;12789;42.610;23.040;2023-07-20T02:02:17;13.43;;;3.97;;
10479;SDS011;12789;42.610;23.040;2023-07-20T02:04:57;14.52;;;3.83;;
10479;SDS011;12789;42.610;23.040;2023-07-20T02:07:29;11.55;;;3.25;;
10479;SDS011;12789;42.610;23.040;2023-07-20T02:10:06;12.68;;;3.13;;
10479;SDS011;12789;42.610;23.040;2023-07-20T02:12:38;10.32;;;3.35;;
10479;SDS011;12789;42.610;23.040;2023-07-20T02:15:10;11.15;;;3.55;;
10479;SDS011;12789;42.610;23.040;2023-07-20T02:17:41;10.18;;;3.10;;
10479;SDS011;12789;42.610;23.040;2023-07-20T02:20:10;13.40;;;3.10;;
10479;SDS011;12789;42.610;23.040;2023-07-20T02:22:48;11.38;;;3.58;;
10479;SDS011;12789;42.610;23.040;2023-07-20T02:25:18;10.75;;;3.17;;
10479;SDS011;12789;42.610;23.040;2023-07-20T02:27:48;18.50;;;3.50;;
10479;SDS011;12789;42.610;23.040;2023-07-20T02:30:18;14.35;;;3.67;;
10479;SDS011;12789;42.610;23.040;2023-07-20T02:33:19;10.95;;;3.22;;
10479;SDS011;12789;42.610;23.040;2023-07-20T02:35:55;11.18;;;3.45;;
10479;SDS011;12789;42.610;23.040;2023-07-20T02:38:44;9.13;;;3.17;;
10479;SDS011;12789;42.610;23.040;2023-07-20T02:41:12;13.27;;;3.55;;
10479;SDS011;12789;42.610;23.040;2023-07-20T02:43:57;11.88;;;3.90;;
10479;SDS011;12789;42.610;23.040;2023-07-20T02:46:48;8.27;;;3.75;;
10479;SDS011;12789;42.610;23.040;2023-07-20T02:49:41;22.27;;;4.40;;
10479;SDS011;12789;42.610;23.040;2023-07-20T02:52:09;33.28;;;4.78;;
10479;SDS011;12789;42.610;23.040;2023-07-20T02:54:52;28.13;;;5.43;;
10479;SDS011;12789;42.610;23.040;2023-07-20T02:57:25;12.50;;;4.72;;
10479;SDS011;12789;42.610;23.040;2023-07-20T03:00:09;17.10;;;4.65;;
10479;SDS011;12789;42.610;23.040;2023-07-20T03:02:44;16.48;;;4.55;;
10479;SDS011;12789;42.610;23.040;2023-07-20T03:05:21;17.92;;;4.88;;
10479;SDS011;12789;42.610;23.040;2023-07-20T03:07:58;15.85;;;4.68;;
10479;SDS011;12789;42.610;23.040;2023-07-20T03:10:47;11.07;;;4.30;;
10479;SDS011;12789;42.610;23.040;2023-07-20T03:13:14;13.55;;;4.63;;
10479;SDS011;12789;42.610;23.040;2023-07-20T03:15:57;21.80;;;5.03;;
10479;SDS011;12789;42.610;23.040;2023-07-20T03:18:27;22.95;;;6.82;;
10479;SDS011;12789;42.610;23.040;2023-07-20T03:21:13;19.48;;;5.28;;
10479;SDS011;12789;42.610;23.040;2023-07-20T03:23:44;26.05;;;4.93;;
10479;SDS011;12789;42.610;23.040;2023-07-20T03:26:19;29.33;;;5.10;;
10479;SDS011;12789;42.610;23.040;2023-07-20T03:28:46;37.85;;;4.82;;
10479;SDS011;12789;42.610;23.040;2023-07-20T03:31:15;44.38;;;4.90;;
10479;SDS011;12789;42.610;23.040;2023-07-20T03:33:44;45.97;;;5.95;;
10479;SDS011;12789;42.610;23.040;2023-07-20T03:36:22;35.00;;;5.10;;
10479;SDS011;12789;42.610;23.040;2023-07-20T03:38:53;46.67;;;5.45;;
10479;SDS011;12789;42.610;23.040;2023-07-20T03:41:26;42.72;;;5.63;;
10479;SDS011;12789;42.610;23.040;2023-07-20T03:44:02;30.30;;;4.70;;
10479;SDS011;12789;42.610;23.040;2023-07-20T03:46:31;28.48;;;5.05;;
10479;SDS011;12789;42.610;23.040;2023-07-20T03:49:02;25.40;;;5.40;;
10479;SDS011;12789;42.610;23.040;2023-07-20T03:53:24;23.05;;;5.57;;
10479;SDS011;12789;42.610;23.040;2023-07-20T03:54:52;16.70;;;4.72;;
10479;SDS011;12789;42.610;23.040;2023-07-20T04:06:02;22.10;;;6.75;;
10479;SDS011;12789;42.610;23.040;2023-07-20T04:08:36;22.40;;;5.28;;
10479;SDS011;12789;42.610;23.040;2023-07-20T04:11:18;29.50;;;8.68;;
10479;SDS011;12789;42.610;23.040;2023-07-20T04:13:51;28.90;;;8.57;;
10479;SDS011;12789;42.610;23.040;2023-07-20T04:16:27;25.25;;;4.95;;
10479;SDS011;12789;42.610;23.040;2023-07-20T04:18:59;23.60;;;4.97;;
10479;SDS011;12789;42.610;23.040;2023-07-20T04:21:30;22.80;;;5.28;;
10479;SDS011;12789;42.610;23.040;2023-07-20T04:23:57;17.92;;;5.82;;
10479;SDS011;12789;42.610;23.040;2023-07-20T04:26:24;21.98;;;4.97;;
10479;SDS011;12789;42.610;23.040;2023-07-20T04:28:50;14.48;;;5.10;;
10479;SDS011;12789;42.610;23.040;2023-07-20T04:31:18;17.58;;;4.15;;
10479;SDS011;12789;42.610;23.040;2023-07-20T04:33:44;16.05;;;5.40;;
10479;SDS011;12789;42.610;23.040;2023-07-20T04:36:11;23.67;;;5.57;;
10479;SDS011;12789;42.610;23.040;2023-07-20T04:38:40;17.45;;;4.80;;
10479;SDS011;12789;42.610;23.040;2023-07-20T04:41:07;17.48;;;4.72;;
10479;SDS011;12789;42.610;23.040;2023-07-20T04:43:33;16.40;;;5.78;;
10479;SDS011;12789;42.610;23.040;2023-07-20T04:46:00;16.98;;;5.05;;
10479;SDS011;12789;42.610;23.040;2023-07-20T04:48:26;13.95;;;4.47;;
10479;SDS011;12789;42.610;23.040;2023-07-20T04:50:53;24.15;;;6.03;;
10479;SDS011;12789;42.610;23.040;2023-07-20T04:53:20;34.55;;;6.65;;
10479;SDS011;12789;42.610;23.040;2023-07-20T04:55:49;27.10;;;6.45;;
10479;SDS011;12789;42.610;23.040;2023-07-20T04:58:20;31.90;;;6.00;;
10479;SDS011;12789;42.610;23.040;2023-07-20T05:00:47;39.78;;;7.22;;
10479;SDS011;12789;42.610;23.040;2023-07-20T05:03:14;22.65;;;6.43;;
10479;SDS011;12789;42.610;23.040;2023-07-20T05:05:40;35.25;;;6.38;;
10479;SDS011;12789;42.610;23.040;2023-07-20T05:08:07;34.97;;;7.10;;
10479;SDS011;12789;42.610;23.040;2023-07-20T05:10:33;31.73;;;7.20;;
10479;SDS011;12789;42.610;23.040;2023-07-20T05:13:01;33.47;;;6.90;;
10479;SDS011;12789;42.610;23.040;2023-07-20T05:15:28;33.10;;;6.55;;
10479;SDS011;12789;42.610;23.040;2023-07-20T05:17:54;30.83;;;6.70;;
10479;SDS011;12789;42.610;23.040;2023-07-20T05:20:21;28.50;;;6.38;;
10479;SDS011;12789;42.610;23.040;2023-07-20T05:22:47;28.83;;;6.15;;
10479;SDS011;12789;42.610;23.040;2023-07-20T05:25:14;26.05;;;6.28;;
10479;SDS011;12789;42.610;23.040;2023-07-20T05:27:43;13.20;;;5.25;;
10479;SDS011;12789;42.610;23.040;2023-07-20T05:30:11;24.90;;;5.57;;
10479;SDS011;12789;42.610;23.040;2023-07-20T05:32:38;16.65;;;6.10;;
10479;SDS011;12789;42.610;23.040;2023-07-20T05:35:05;23.55;;;6.32;;
10479;SDS011;12789;42.610;23.040;2023-07-20T05:37:32;17.83;;;4.90;;
10479;SDS011;12789;42.610;23.040;2023-07-20T05:39:59;13.20;;;4.22;;
10479;SDS011;12789;42.610;23.040;2023-07-20T05:42:25;14.77;;;4.20;;
10479;SDS011;12789;42.610;23.040;2023-07-20T05:44:54;11.10;;;4.13;;
10479;SDS011;12789;42.610;23.040;2023-07-20T05:47:22;12.35;;;3.53;;
10479;SDS011;12789;42.610;23.040;2023-07-20T05:49:48;11.98;;;3.80;;
10479;SDS011;12789;42.610;23.040;2023-07-20T05:52:15;12.05;;;3.67;;
10479;SDS011;12789;42.610;23.040;2023-07-20T05:54:41;15.73;;;4.15;;
10479;SDS011;12789;42.610;23.040;2023-07-20T05:57:08;11.50;;;3.83;;
10479;SDS011;12789;42.610;23.040;2023-07-20T05:59:35;15.77;;;4.28;;
10479;SDS011;12789;42.610;23.040;2023-07-20T06:02:01;9.90;;;5.32;;
10479;SDS011;12789;42.610;23.040;2023-07-20T06:04:29;12.57;;;4.10;;
10479;SDS011;12789;42.610;23.040;2023-07-20T06:06:56;14.98;;;4.03;;
10479;SDS011;12789;42.610;23.040;2023-07-20T06:09:22;11.48;;;4.68;;
10479;SDS011;12789;42.610;23.040;2023-07-20T06:11:49;12.00;;;4.15;;
10479;SDS011;12789;42.610;23.040;2023-07-20T06:14:15;17.17;;;5.18;;
10479;SDS011;12789;42.610;23.040;2023-07-20T06:16:43;15.15;;;4.75;;
10479;SDS011;12789;42.610;23.040;2023-07-20T06:19:10;13.02;;;4.53;;
10479;SDS011;12789;42.610;23.040;2023-07-20T06:21:38;18.42;;;4.70;;
10479;SDS011;12789;42.610;23.040;2023-07-20T06:24:05;19.05;;;4.53;;
10479;SDS011;12789;42.610;23.040;2023-07-20T06:26:32;23.75;;;5.68;;
10479;SDS011;12789;42.610;23.040;2023-07-20T06:29:03;21.27;;;4.72;;
10479;SDS011;12789;42.610;23.040;2023-07-20T06:31:31;15.93;;;4.25;;
10479;SDS011;12789;42.610;23.040;2023-07-20T06:33:58;18.20;;;5.22;;
10479;SDS011;12789;42.610;23.040;2023-07-20T06:36:24;12.65;;;4.28;;
10479;SDS011;12789;42.610;23.040;2023-07-20T06:38:52;15.63;;;4.13;;
10479;SDS011;12789;42.610;23.040;2023-07-20T06:41:19;21.70;;;4.85;;
10479;SDS011;12789;42.610;23.040;2023-07-20T06:43:45;14.77;;;4.40;;
10479;SDS011;12789;42.610;23.040;2023-07-20T06:46:12;17.85;;;4.78;;
10479;SDS011;12789;42.610;23.040;2023-07-20T06:48:39;26.88;;;5.20;;
10479;SDS011;12789;42.610;23.040;2023-07-20T06:51:05;22.80;;;4.90;;
10479;SDS011;12789;42.610;23.040;2023-07-20T06:53:32;30.88;;;4.97;;
10479;SDS011;12789;42.610;23.040;2023-07-20T06:56:00;16.10;;;4.53;;
10479;SDS011;12789;42.610;23.040;2023-07-20T06:58:26;14.23;;;4.93;;
10479;SDS011;12789;42.610;23.040;2023-07-20T07:00:52;14.30;;;4.07;;
10479;SDS011;12789;42.610;23.040;2023-07-20T07:03:19;13.85;;;4.55;;
10479;SDS011;12789;42.610;23.040;2023-07-20T07:05:47;19.70;;;4.43;;
10479;SDS011;12789;42.610;23.040;2023-07-20T07:08:13;20.38;;;4.13;;
10479;SDS011;12789;42.610;23.040;2023-07-20T07:10:39;18.20;;;4.40;;
10479;SDS011;12789;42.610;23.040;2023-07-20T07:13:07;26.70;;;4.78;;
10479;SDS011;12789;42.610;23.040;2023-07-20T07:15:34;15.00;;;4.00;;
10479;SDS011;12789;42.610;23.040;2023-07-20T07:18:00;15.98;;;4.38;;
10479;SDS011;12789;42.610;23.040;2023-07-20T07:20:28;17.77;;;4.00;;
10479;SDS011;12789;42.610;23.040;2023-07-20T07:22:55;12.45;;;3.22;;
10479;SDS011;12789;42.610;23.040;2023-07-20T07:25:22;7.80;;;3.35;;
10479;SDS011;12789;42.610;23.040;2023-07-20T07:27:48;10.27;;;3.15;;
10479;SDS011;12789;42.610;23.040;2023-07-20T07:30:16;8.48;;;3.67;;
10479;SDS011;12789;42.610;23.040;2023-07-20T07:32:43;8.25;;;3.42;;
10479;SDS011;12789;42.610;23.040;2023-07-20T07:35:10;8.15;;;2.50;;
10479;SDS011;12789;42.610;23.040;2023-07-20T07:37:36;6.43;;;2.90;;
10479;SDS011;12789;42.610;23.040;2023-07-20T07:40:03;9.88;;;3.20;;
10479;SDS011;12789;42.610;23.040;2023-07-20T07:42:31;16.27;;;3.58;;
10479;SDS011;12789;42.610;23.040;2023-07-20T07:44:57;9.05;;;3.17;;
10479;SDS011;12789;42.610;23.040;2023-07-20T07:47:25;11.20;;;4.10;;
10479;SDS011;12789;42.610;23.040;2023-07-20T07:49:52;6.10;;;3.00;;
10479;SDS011;12789;42.610;23.040;2023-07-20T07:52:18;16.58;;;3.30;;
10479;SDS011;12789;42.610;23.040;2023-07-20T07:54:45;12.05;;;3.08;;
10479;SDS011;12789;42.610;23.040;2023-07-20T07:57:11;12.75;;;2.78;;
10479;SDS011;12789;42.610;23.040;2023-07-20T07:59:39;8.18;;;2.78;;
10479;SDS011;12789;42.610;23.040;2023-07-20T08:02:05;6.88;;;2.90;;
10479;SDS011;12789;42.610;23.040;2023-07-20T08:04:33;6.93;;;2.80;;
10479;SDS011;12789;42.610;23.040;2023-07-20T08:07:00;6.55;;;2.90;;
10479;SDS011;12789;42.610;23.040;2023-07-20T08:09:26;4.60;;;2.45;;
10479;SDS011;12789;42.610;23.040;2023-07-20T08:11:53;7.28;;;3.08;;
10479;SDS011;12789;42.610;23.040;2023-07-20T08:14:19;3.40;;;2.88;;
10479;SDS011;12789;42.610;23.040;2023-07-20T08:16:46;8.95;;;3.00;;
10479;SDS011;12789;42.610;23.040;2023-07-20T08:19:12;7.55;;;2.92;;
10479;SDS011;12789;42.610;23.040;2023-07-20T08:21:40;7.65;;;2.88;;
10479;SDS011;12789;42.610;23.040;2023-07-20T08:24:07;8.82;;;2.63;;
10479;SDS011;12789;42.610;23.040;2023-07-20T08:26:33;6.75;;;2.80;;
10479;SDS011;12789;42.610;23.040;2023-07-20T08:29:00;12.77;;;3.88;;
10479;SDS011;12789;42.610;23.040;2023-07-20T08:31:26;8.05;;;2.60;;
10479;SDS011;12789;42.610;23.040;2023-07-20T08:33:53;5.28;;;2.42;;
10479;SDS011;12789;42.610;23.040;2023-07-20T08:36:22;7.80;;;2.60;;
10479;SDS011;12789;42.610;23.040;2023-07-20T08:38:49;9.95;;;2.80;;
10479;SDS011;12789;42.610;23.040;2023-07-20T08:41:16;4.50;;;2.90;;
10479;SDS011;12789;42.610;23.040;2023-07-20T08:43:43;8.10;;;2.47;;
10479;SDS011;12789;42.610;23.040;2023-07-20T08:46:12;6.57;;;2.35;;
10479;SDS011;12789;42.610;23.040;2023-07-20T08:48:39;5.68;;;2.45;;
10479;SDS011;12789;42.610;23.040;2023-07-20T08:51:06;10.40;;;2.30;;
10479;SDS011;12789;42.610;23.040;2023-07-20T08:53:33;11.35;;;1.95;;
10479;SDS011;12789;42.610;23.040;2023-07-20T08:56:01;8.38;;;2.53;;
10479;SDS011;12789;42.610;23.040;2023-07-20T08:58:28;5.57;;;2.40;;
10479;SDS011;12789;42.610;23.040;2023-07-20T09:00:55;5.93;;;2.08;;
10479;SDS011;12789;42.610;23.040;2023-07-20T09:03:24;4.90;;;2.13;;
10479;SDS011;12789;42.610;23.040;2023-07-20T09:05:51;8.05;;;2.50;;
10479;SDS011;12789;42.610;23.040;2023-07-20T09:08:17;8.60;;;2.60;;
10479;SDS011;12789;42.610;23.040;2023-07-20T09:10:44;8.02;;;2.40;;
10479;SDS011;12789;42.610;23.040;2023-07-20T09:13:15;8.38;;;2.38;;
10479;SDS011;12789;42.610;23.040;2023-07-20T09:15:45;5.40;;;2.08;;
10479;SDS011;12789;42.610;23.040;2023-07-20T09:18:12;8.57;;;7.10;;
10479;SDS011;12789;42.610;23.040;2023-07-20T09:20:38;7.45;;;2.45;;
10479;SDS011;12789;42.610;23.040;2023-07-20T09:23:05;7.70;;;2.55;;
10479;SDS011;12789;42.610;23.040;2023-07-20T09:25:32;5.35;;;2.15;;
10479;SDS011;12789;42.610;23.040;2023-07-20T09:28:01;4.30;;;2.47;;
10479;SDS011;12789;42.610;23.040;2023-07-20T09:30:29;7.28;;;2.50;;
10479;SDS011;12789;42.610;23.040;2023-07-20T09:32:56;8.48;;;2.40;;
10479;SDS011;12789;42.610;23.040;2023-07-20T09:35:22;6.38;;;2.38;;
10479;SDS011;12789;42.610;23.040;2023-07-20T09:37:50;5.65;;;2.88;;
10479;SDS011;12789;42.610;23.040;2023-07-20T09:40:18;6.28;;;2.47;;
10479;SDS011;12789;42.610;23.040;2023-07-20T09:42:45;7.40;;;2.63;;
10479;SDS011;12789;42.610;23.040;2023-07-20T09:45:11;5.57;;;2.20;;
10479;SDS011;12789;42.610;23.040;2023-07-20T09:47:39;4.65;;;2.58;;
10479;SDS011;12789;42.610;23.040;2023-07-20T09:50:07;9.70;;;2.60;;
10479;SDS011;12789;42.610;23.040;2023-07-20T09:52:37;4.78;;;2.95;;
10479;SDS011;12789;42.610;23.040;2023-07-20T09:55:04;5.82;;;2.20;;
10479;SDS011;12789;42.610;23.040;2023-07-20T09:57:31;7.78;;;2.53;;
10479;SDS011;12789;42.610;23.040;2023-07-20T09:59:58;9.82;;;2.38;;
10479;SDS011;12789;42.610;23.040;2023-07-20T10:02:26;5.22;;;2.30;;
10479;SDS011;12789;42.610;23.040;2023-07-20T10:04:55;5.47;;;1.92;;
10479;SDS011;12789;42.610;23.040;2023-07-20T10:07:22;4.47;;;2.20;;
10479;SDS011;12789;42.610;23.040;2023-07-20T10:09:51;10.80;;;2.45;;
10479;SDS011;12789;42.610;23.040;2023-07-20T10:12:19;3.58;;;1.65;;
10479;SDS011;12789;42.610;23.040;2023-07-20T10:14:49;4.80;;;2.20;;
10479;SDS011;12789;42.610;23.040;2023-07-20T10:17:19;3.67;;;1.98;;
10479;SDS011;12789;42.610;23.040;2023-07-20T10:19:54;4.65;;;1.90;;
10479;SDS011;12789;42.610;23.040;2023-07-20T10:22:53;6.40;;;2.33;;
10479;SDS011;12789;42.610;23.040;2023-07-20T10:25:42;7.30;;;2.03;;
10479;SDS011;12789;42.610;23.040;2023-07-20T10:28:18;4.25;;;2.22;;
10479;SDS011;12789;42.610;23.040;2023-07-20T10:34:03;5.53;;;2.60;;
10479;SDS011;12789;42.610;23.040;2023-07-20T10:37:00;9.65;;;2.53;;
10479;SDS011;12789;42.610;23.040;2023-07-20T10:43:24;9.82;;;2.47;;
10479;SDS011;12789;42.610;23.040;2023-07-20T10:46:45;9.25;;;2.92;;
10479;SDS011;12789;42.610;23.040;2023-07-20T10:52:57;7.88;;;2.88;;
10479;SDS011;12789;42.610;23.040;2023-07-20T10:56:11;5.97;;;2.90;;
10479;SDS011;12789;42.610;23.040;2023-07-20T11:01:58;4.50;;;3.38;;
10479;SDS011;12789;42.610;23.040;2023-07-20T11:04:45;8.00;;;3.50;;
10479;SDS011;12789;42.610;23.040;2023-07-20T11:07:44;4.20;;;3.10;;
10479;SDS011;12789;42.610;23.040;2023-07-20T11:10:42;8.43;;;3.08;;
10479;SDS011;12789;42.610;23.040;2023-07-20T11:13:35;7.07;;;3.20;;
10479;SDS011;12789;42.610;23.040;2023-07-20T11:23:15;16.90;;;3.50;;
10479;SDS011;12789;42.610;23.040;2023-07-20T11:26:05;9.75;;;3.10;;
10479;SDS011;12789;42.610;23.040;2023-07-20T11:28:53;10.40;;;3.22;;
10479;SDS011;12789;42.610;23.040;2023-07-20T11:32:03;15.73;;;3.80;;
10479;SDS011;12789;42.610;23.040;2023-07-20T11:34:44;10.02;;;3.20;;
10479;SDS011;12789;42.610;23.040;2023-07-20T11:37:24;17.88;;;4.20;;
10479;SDS011;12789;42.610;23.040;2023-07-20T11:40:06;8.48;;;3.13;;
10479;SDS011;12789;42.610;23.040;2023-07-20T11:42:46;5.88;;;3.03;;
10479;SDS011;12789;42.610;23.040;2023-07-20T11:45:26;7.05;;;3.20;;
10479;SDS011;12789;42.610;23.040;2023-07-20T11:51:34;13.48;;;3.28;;
10479;SDS011;12789;42.610;23.040;2023-07-20T11:54:00;10.43;;;3.28;;
10479;SDS011;12789;42.610;23.040;2023-07-20T12:02:47;9.40;;;3.08;;
10479;SDS011;12789;42.610;23.040;2023-07-20T12:05:41;6.30;;;3.22;;
10479;SDS011;12789;42.610;23.040;2023-07-20T12:08:12;7.15;;;3.33;;
10479;SDS011;12789;42.610;23.040;2023-07-20T12:10:48;11.05;;;3.10;;
10479;SDS011;12789;42.610;23.040;2023-07-20T12:13:46;5.82;;;2.97;;
10479;SDS011;12789;42.610;23.040;2023-07-20T12:16:16;9.07;;;2.75;;
10479;SDS011;12789;42.610;23.040;2023-07-20T12:18:52;5.65;;;2.97;;
10479;SDS011;12789;42.610;23.040;2023-07-20T12:21:28;4.85;;;2.80;;
10479;SDS011;12789;42.610;23.040;2023-07-20T12:24:20;5.22;;;3.10;;
10479;SDS011;12789;42.610;23.040;2023-07-20T12:26:55;7.70;;;3.38;;
10479;SDS011;12789;42.610;23.040;2023-07-20T12:29:25;8.25;;;3.10;;
10479;SDS011;12789;42.610;23.040;2023-07-20T12:32:06;7.38;;;2.70;;
10479;SDS011;12789;42.610;23.040;2023-07-20T12:34:48;6.07;;;3.22;;
10479;SDS011;12789;42.610;23.040;2023-07-20T12:37:22;5.50;;;3.00;;
10479;SDS011;12789;42.610;23.040;2023-07-20T12:39:49;8.48;;;2.90;;
10479;SDS011;12789;42.610;23.040;2023-07-20T12:42:23;4.88;;;2.63;;
10479;SDS011;12789;42.610;23.040;2023-07-20T12:45:03;5.05;;;2.85;;
10479;SDS011;12789;42.610;23.040;2023-07-20T12:47:32;5.25;;;2.90;;
10479;SDS011;12789;42.610;23.040;2023-07-20T12:50:01;10.43;;;3.15;;
10479;SDS011;12789;42.610;23.040;2023-07-20T12:52:35;4.45;;;2.47;;
10479;SDS011;12789;42.610;23.040;2023-07-20T12:55:04;9.18;;;2.90;;
10479;SDS011;12789;42.610;23.040;2023-07-20T12:57:34;8.73;;;2.65;;
10479;SDS011;12789;42.610;23.040;2023-07-20T13:00:16;8.60;;;2.90;;
10479;SDS011;12789;42.610;23.040;2023-07-20T13:03:03;7.53;;;2.97;;
10479;SDS011;12789;42.610;23.040;2023-07-20T13:05:49;8.77;;;3.25;;
10479;SDS011;12789;42.610;23.040;2023-07-20T13:08:23;12.10;;;3.40;;
10479;SDS011;12789;42.610;23.040;2023-07-20T13:11:00;8.23;;;3.08;;
10479;SDS011;12789;42.610;23.040;2023-07-20T13:13:30;7.15;;;2.80;;
10479;SDS011;12789;42.610;23.040;2023-07-20T13:15:58;6.70;;;2.72;;
10479;SDS011;12789;42.610;23.040;2023-07-20T13:18:27;7.82;;;2.85;;
10479;SDS011;12789;42.610;23.040;2023-07-20T13:21:07;11.77;;;2.78;;
10479;SDS011;12789;42.610;23.040;2023-07-20T13:23:38;4.20;;;2.65;;
10479;SDS011;12789;42.610;23.040;2023-07-20T13:26:08;8.05;;;2.80;;
10479;SDS011;12789;42.610;23.040;2023-07-20T13:28:36;6.55;;;2.83;;
10479;SDS011;12789;42.610;23.040;2023-07-20T13:31:06;5.40;;;2.55;;
10479;SDS011;12789;42.610;23.040;2023-07-20T13:33:40;7.70;;;3.15;;
10479;SDS011;12789;42.610;23.040;2023-07-20T13:36:14;7.18;;;2.97;;
10479;SDS011;12789;42.610;23.040;2023-07-20T13:38:50;11.07;;;2.90;;
10479;SDS011;12789;42.610;23.040;2023-07-20T13:41:21;7.32;;;2.72;;
10479;SDS011;12789;42.610;23.040;2023-07-20T13:43:48;7.95;;;2.65;;
10479;SDS011;12789;42.610;23.040;2023-07-20T13:46:17;10.30;;;2.90;;
10479;SDS011;12789;42.610;23.040;2023-07-20T13:48:48;8.38;;;2.60;;
10479;SDS011;12789;42.610;23.040;2023-07-20T13:54:08;9.98;;;2.50;;
10479;SDS011;12789;42.610;23.040;2023-07-20T13:56:43;7.47;;;2.67;;
10479;SDS011;12789;42.610;23.040;2023-07-20T13:59:10;7.63;;;2.65;;
10479;SDS011;12789;42.610;23.040;2023-07-20T14:01:39;6.32;;;2.30;;
10479;SDS011;12789;42.610;23.040;2023-07-20T14:04:06;11.30;;;2.97;;
10479;SDS011;12789;42.610;23.040;2023-07-20T14:06:33;7.05;;;2.42;;
10479;SDS011;12789;42.610;23.040;2023-07-20T14:11:49;5.93;;;2.47;;
10479;SDS011;12789;42.610;23.040;2023-07-20T14:14:16;6.38;;;2.42;;
10479;SDS011;12789;42.610;23.040;2023-07-20T14:16:46;5.85;;;1.90;;
10479;SDS011;12789;42.610;23.040;2023-07-20T14:19:16;8.50;;;2.67;;
10479;SDS011;12789;42.610;23.040;2023-07-20T14:21:45;8.00;;;2.50;;
10479;SDS011;12789;42.610;23.040;2023-07-20T14:24:17;7.22;;;2.00;;
10479;SDS011;12789;42.610;23.040;2023-07-20T14:26:51;5.32;;;2.22;;
10479;SDS011;12789;42.610;23.040;2023-07-20T14:29:22;7.95;;;2.80;;
10479;SDS011;12789;42.610;23.040;2023-07-20T14:31:49;5.70;;;2.03;;
10479;SDS011;12789;42.610;23.040;2023-07-20T14:34:26;4.90;;;2.17;;
10479;SDS011;12789;42.610;23.040;2023-07-20T14:36:52;5.57;;;2.28;;
10479;SDS011;12789;42.610;23.040;2023-07-20T14:39:22;9.32;;;2.53;;
10479;SDS011;12789;42.610;23.040;2023-07-20T14:42:01;5.38;;;2.00;;
10479;SDS011;12789;42.610;23.040;2023-07-20T14:44:28;11.05;;;2.53;;
10479;SDS011;12789;42.610;23.040;2023-07-20T14:46:57;6.38;;;1.98;;
10479;SDS011;12789;42.610;23.040;2023-07-20T14:49:25;5.22;;;1.98;;
10479;SDS011;12789;42.610;23.040;2023-07-20T14:51:57;12.00;;;2.63;;
10479;SDS011;12789;42.610;23.040;2023-07-20T14:54:23;7.18;;;1.90;;
10479;SDS011;12789;42.610;23.040;2023-07-20T14:56:53;7.13;;;2.17;;
10479;SDS011;12789;42.610;23.040;2023-07-20T14:59:26;7.55;;;2.20;;
10479;SDS011;12789;42.610;23.040;2023-07-20T15:01:53;4.95;;;2.33;;
10479;SDS011;12789;42.610;23.040;2023-07-20T15:04:19;6.63;;;2.20;;
10479;SDS011;12789;42.610;23.040;2023-07-20T15:06:46;6.30;;;2.50;;
10479;SDS011;12789;42.610;23.040;2023-07-20T15:09:13;3.55;;;2.03;;
10479;SDS011;12789;42.610;23.040;2023-07-20T15:11:42;4.82;;;1.90;;
10479;SDS011;12789;42.610;23.040;2023-07-20T15:14:11;4.80;;;2.22;;
10479;SDS011;12789;42.610;23.040;2023-07-20T15:16:42;7.18;;;1.80;;
10479;SDS011;12789;42.610;23.040;2023-07-20T15:19:08;4.20;;;2.05;;
10479;SDS011;12789;42.610;23.040;2023-07-20T15:21:41;6.50;;;2.47;;
10479;SDS011;12789;42.610;23.040;2023-07-20T15:24:09;7.65;;;2.88;;
10479;SDS011;12789;42.610;23.040;2023-07-20T15:26:36;7.18;;;2.05;;
10479;SDS011;12789;42.610;23.040;2023-07-20T15:29:03;6.32;;;2.30;;
10479;SDS011;12789;42.610;23.040;2023-07-20T15:31:29;7.53;;;2.97;;
10479;SDS011;12789;42.610;23.040;2023-07-20T15:33:57;5.05;;;2.30;;
10479;SDS011;12789;42.610;23.040;2023-07-20T15:36:27;8.00;;;2.22;;
10479;SDS011;12789;42.610;23.040;2023-07-20T15:38:56;5.80;;;1.90;;
10479;SDS011;12789;42.610;23.040;2023-07-20T15:41:28;5.13;;;2.17;;
10479;SDS011;12789;42.610;23.040;2023-07-20T15:43:56;6.85;;;2.40;;
10479;SDS011;12789;42.610;23.040;2023-07-20T15:49:15;7.47;;;2.38;;
10479;SDS011;12789;42.610;23.040;2023-07-20T15:51:45;5.78;;;2.45;;
10479;SDS011;12789;42.610;23.040;2023-07-20T15:54:14;4.88;;;2.35;;
10479;SDS011;12789;42.610;23.040;2023-07-20T15:56:41;5.45;;;2.40;;
10479;SDS011;12789;42.610;23.040;2023-07-20T15:59:09;5.05;;;1.80;;
10479;SDS011;12789;42.610;23.040;2023-07-20T16:01:38;3.88;;;2.50;;
10479;SDS011;12789;42.610;23.040;2023-07-20T16:04:05;5.55;;;2.40;;